Time;durP1;ratioP1;P1;durP2;ratioP2;P2;SDS_P1;SDS_P2;PMS_P1;PMS_P2;Temp;Humidity;BMP_temperature;BMP_pressure;BME280_temperature;BME280_humidity;BME280_pressure;Samples;Min_cycle;Max_cycle;Signal;HPM_P1;HPM_P2
2022/08/16 00:02:04;;;;;;;7.93;6.38;;;;;;;20.39;100.00;99663.59;6230200;28;20057;-91
2022/08/16 00:05:14;;;;;;;8.70;6.35;;;;;;;20.32;100.00;99660.22;6228702;28;20080;-91
2022/08/16 00:08:17;;;;;;;7.75;6.10;;;;;;;20.30;100.00;99654.34;6224149;28;20041;-91
2022/08/16 00:11:39;;;;;;;9.48;6.90;;;;;;;20.25;100.00;99655.97;6237116;28;20194;-91
2022/08/16 00:14:41;;;;;;;10.77;6.60;;;;;;;20.18;100.00;99645.50;6257218;28;20548;-92
2022/08/16 00:17:43;;;;;;;6.78;6.07;;;;;;;20.11;100.00;99655.19;6232238;28;20048;-91
2022/08/16 00:20:58;;;;;;;7.68;6.13;;;;;;;20.03;100.00;99650.16;6237895;28;20029;-91
2022/08/16 00:24:00;;;;;;;10.05;6.60;;;;;;;19.95;100.00;99646.75;6236845;28;20446;-91
2022/08/16 00:27:05;;;;;;;8.95;7.00;;;;;;;19.92;100.00;99654.19;6231799;28;20076;-91
2022/08/16 00:30:12;;;;;;;8.75;6.95;;;;;;;19.92;100.00;99654.19;6222642;28;20029;-92
2022/08/16 00:33:29;;;;;;;;;;;;;;;19.88;100.00;99661.69;6242868;28;20496;-92
2022/08/16 00:36:31;;;;;;;7.72;6.03;;;;;;;19.84;100.00;99657.03;6240911;28;19929;-92
2022/08/16 00:39:33;;;;;;;10.38;6.00;;;;;;;19.78;100.00;99659.47;6229522;28;20057;-91
2022/08/16 00:42:35;;;;;;;9.50;6.25;;;;;;;19.74;100.00;99660.06;6262915;28;20080;-91
2022/08/16 00:46:09;;;;;;;7.95;5.88;;;;;;;19.67;100.00;99664.47;6235217;28;20107;-92
2022/08/16 00:49:32;;;;;;;7.22;6.15;;;;;;;19.58;100.00;99656.81;6233266;28;20065;-91
2022/08/16 00:52:46;;;;;;;9.30;6.22;;;;;;;19.55;100.00;99661.66;6239470;28;20052;-92
2022/08/16 00:55:57;;;;;;;10.60;7.68;;;;;;;19.47;100.00;99670.53;6240904;28;20040;-91
2022/08/16 00:58:59;;;;;;;8.70;6.75;;;;;;;19.43;100.00;99668.50;6274438;28;20079;-92
2022/08/16 01:02:05;;;;;;;10.68;6.70;;;;;;;19.37;100.00;99665.66;6239974;28;20137;-92
2022/08/16 01:05:28;;;;;;;9.63;7.50;;;;;;;19.32;100.00;99675.16;6232357;28;20570;-91
2022/08/16 01:08:30;;;;;;;9.43;7.10;;;;;;;19.30;100.00;99664.88;6226172;28;20041;-92
2022/08/16 01:11:38;;;;;;;8.15;6.80;;;;;;;19.28;100.00;99659.00;6229308;28;20749;-92
2022/08/16 01:14:58;;;;;;;8.32;7.20;;;;;;;19.25;100.00;99663.81;6252388;28;20037;-92
2022/08/16 01:18:03;;;;;;;8.68;6.88;;;;;;;19.21;100.00;99666.06;6267880;28;20076;-92
2022/08/16 01:21:43;;;;;;;10.00;7.18;;;;;;;19.13;100.00;99674.13;6229050;28;20126;-92
2022/08/16 01:24:50;;;;;;;8.65;6.97;;;;;;;19.08;100.00;99672.09;6267784;28;20049;-92
2022/08/16 01:28:02;;;;;;;10.25;6.72;;;;;;;19.04;100.00;99673.47;6221429;28;20534;-92
2022/08/16 01:31:07;;;;;;;11.68;6.75;;;;;;;19.00;100.00;99677.47;6233623;28;20782;-91
2022/08/16 01:34:12;;;;;;;9.00;7.28;;;;;;;18.96;100.00;99680.72;6279698;28;20053;-92
2022/08/16 01:37:28;;;;;;;11.68;6.95;;;;;;;18.89;100.00;99678.88;6259914;28;20046;-92
2022/08/16 01:40:36;;;;;;;8.30;7.25;;;;;;;18.84;100.00;99681.28;6269582;28;20075;-92
2022/08/16 01:43:42;;;;;;;11.95;7.20;;;;;;;18.82;100.00;99680.66;6241015;28;20042;-92
2022/08/16 01:46:47;;;;;;;9.35;7.80;;;;;;;18.81;100.00;99680.88;6231234;28;20053;-92
2022/08/16 01:49:53;;;;;;;12.48;7.95;;;;;;;18.79;100.00;99681.06;6224058;28;20057;-92
2022/08/16 01:53:15;;;;;;;9.85;7.80;;;;;;;18.79;100.00;99685.50;6265374;28;20045;-92
2022/08/16 01:56:36;;;;;;;;;;;;;;;18.79;100.00;99694.16;6239632;28;20512;-92
2022/08/16 01:59:38;;;;;;;11.98;7.78;;;;;;;18.78;100.00;99687.31;6228822;28;19924;-91
2022/08/16 02:02:42;;;;;;;9.63;7.40;;;;;;;18.76;100.00;99680.63;6260510;28;20450;-92
2022/08/16 02:05:43;;;;;;;12.68;7.45;;;;;;;18.72;100.00;99695.91;6258907;28;20514;-92
2022/08/16 02:08:56;;;;;;;10.48;7.10;;;;;;;18.69;100.00;99698.94;6235377;28;20069;-91
2022/08/16 02:12:00;;;;;;;13.52;7.43;;;;;;;18.65;100.00;99706.34;6225604;28;20396;-92
2022/08/16 02:15:25;;;;;;;11.27;7.90;;;;;;;18.62;100.00;99703.31;6252931;28;20034;-92
2022/08/16 02:18:29;;;;;;;7.85;6.97;;;;;;;18.59;100.00;99706.34;6217754;28;20087;-92
2022/08/16 02:21:32;;;;;;;8.77;7.72;;;;;;;18.55;100.00;99705.09;6246215;28;20292;-92
2022/08/16 02:24:37;;;;;;;10.35;7.80;;;;;;;18.51;100.00;99708.09;6237422;28;20058;-92
2022/08/16 02:27:44;;;;;;;12.00;7.72;;;;;;;18.48;100.00;99702.44;6226064;28;20033;-92
2022/08/16 02:30:56;;;;;;;12.00;7.50;;;;;;;18.46;100.00;99709.69;6222572;28;20479;-92
2022/08/16 02:33:58;;;;;;;9.55;7.07;;;;;;;18.42;100.00;99706.63;6264497;28;20053;-92
2022/08/16 02:37:12;;;;;;;9.15;7.97;;;;;;;18.43;100.00;99705.66;6218320;28;20093;-92
2022/08/16 02:40:23;;;;;;;10.30;7.72;;;;;;;18.42;100.00;99709.25;6251392;28;20487;-92
2022/08/16 02:43:28;;;;;;;9.20;7.40;;;;;;;18.42;100.00;99704.03;6251779;28;20879;-92
2022/08/16 02:46:34;;;;;;;11.18;7.70;;;;;;;18.41;100.00;99709.44;6258085;28;20060;-92
2022/08/16 02:49:38;;;;;;;9.38;6.72;;;;;;;18.39;100.00;99703.59;6229277;28;20511;-92
2022/08/16 02:53:00;;;;;;;12.10;6.95;;;;;;;18.36;100.00;99701.34;6235294;28;20069;-92
2022/08/16 02:56:04;;;;;;;11.13;8.13;;;;;;;18.35;100.00;99707.59;6237378;28;20060;-93
2022/08/16 02:59:11;;;;;;;9.38;6.88;;;;;;;18.33;100.00;99713.03;6220712;28;20089;-92
2022/08/16 03:02:16;;;;;;;11.73;8.15;;;;;;;18.29;100.00;99709.19;6236305;28;20076;-92
2022/08/16 03:05:19;;;;;;;10.07;7.82;;;;;;;18.28;100.00;99705.75;6270496;28;20585;-93
2022/08/16 03:08:22;;;;;;;10.27;7.32;;;;;;;18.27;100.00;99700.69;6264761;28;20048;-92
2022/08/16 03:11:44;;;;;;;8.75;6.90;;;;;;;18.25;100.00;99698.25;6221793;28;20186;-92
2022/08/16 03:14:47;;;;;;;8.10;7.15;;;;;;;18.25;100.00;99698.25;6210687;28;20481;-92
2022/08/16 03:17:52;;;;;;;10.57;6.47;;;;;;;18.21;100.00;99697.03;6257681;28;20130;-92
2022/08/16 03:21:00;;;;;;;8.02;6.78;;;;;;;18.21;100.00;99693.59;6232914;28;20744;-92
2022/08/16 03:24:10;;;;;;;8.38;6.65;;;;;;;18.18;100.00;99697.41;6242309;28;20502;-92
2022/08/16 03:27:32;;;;;;;8.70;6.60;;;;;;;18.16;100.00;99693.34;6259816;28;20041;-92
2022/08/16 03:30:37;;;;;;;8.93;7.05;;;;;;;18.13;100.00;99691.94;6274488;28;20210;-93
2022/08/16 03:33:44;;;;;;;9.02;7.30;;;;;;;18.14;100.00;99693.56;6217020;28;20050;-92
2022/08/16 03:36:46;;;;;;;8.93;7.10;;;;;;;18.17;100.00;99695.00;6237172;28;20406;-92
2022/08/16 03:39:48;;;;;;;8.15;6.78;;;;;;;18.19;100.00;99698.25;6235962;28;20057;-92
2022/08/16 03:42:57;;;;;;;9.50;7.38;;;;;;;18.23;100.00;99689.78;6228113;28;20094;-92
2022/08/16 03:46:22;;;;;;;9.38;7.25;;;;;;;18.30;100.00;99695.88;6229275;28;20033;-92
2022/08/16 03:49:47;;;;;;;11.15;6.90;;;;;;;18.40;100.00;99694.72;6229128;28;20069;-92
2022/08/16 03:52:54;;;;;;;7.47;6.70;;;;;;;18.49;100.00;99696.22;6229891;28;20387;-93
2022/08/16 03:56:07;;;;;;;9.30;7.03;;;;;;;18.60;100.00;99698.25;6248308;28;20038;-92
2022/08/16 03:59:21;;;;;;;8.40;6.63;;;;;;;18.69;100.00;99696.31;6250442;28;20042;-92
2022/08/16 04:02:25;;;;;;;9.20;7.35;;;;;;;18.77;100.00;99708.47;6218392;28;20045;-92
2022/08/16 04:05:39;;;;;;;12.88;8.77;;;;;;;18.76;100.00;99709.47;6251199;28;20058;-92
2022/08/16 04:08:46;;;;;;;12.98;8.82;;;;;;;18.69;100.00;99715.47;6227575;28;20049;-92
2022/08/16 04:11:48;;;;;;;13.30;8.60;;;;;;;18.64;100.00;99715.22;6237927;28;20447;-92
2022/08/16 04:14:53;;;;;;;10.32;9.05;;;;;;;18.59;100.00;99719.44;6252979;28;20072;-91
2022/08/16 04:17:56;;;;;;;11.77;7.70;;;;;;;18.56;100.00;99715.41;6237900;28;20053;-92
2022/08/16 04:20:59;;;;;;;9.35;7.53;;;;;;;18.60;100.00;99710.56;6230529;28;20053;-92
2022/08/16 04:24:04;;;;;;;12.07;8.35;;;;;;;18.62;100.00;99714.63;6226180;28;20072;-92
2022/08/16 04:27:09;;;;;;;9.60;7.88;;;;;;;18.64;100.00;99719.66;6219057;28;20054;-92
2022/08/16 04:30:16;;;;;;;10.45;7.50;;;;;;;18.69;100.00;99720.72;6260739;28;20046;-92
2022/08/16 04:33:33;;;;;;;;;;;;;;;18.75;100.00;99718.31;6258441;28;20073;-92
2022/08/16 04:36:35;;;;;;;9.63;6.43;;;;;;;18.77;100.00;99717.13;6263916;28;20059;-92
2022/08/16 04:39:38;;;;;;;6.75;5.95;;;;;;;18.80;100.00;99718.56;6259817;28;20049;-92
2022/08/16 04:42:50;;;;;;;7.68;6.28;;;;;;;18.89;100.00;99722.66;6233939;28;20046;-92
2022/08/16 04:45:56;;;;;;;10.65;5.70;;;;;;;18.98;100.00;99723.28;6235621;28;20033;-93
2022/08/16 04:49:03;;;;;;;7.75;6.50;;;;;;;19.05;100.00;99730.16;6231566;28;20041;-92
2022/08/16 04:52:05;;;;;;;8.40;6.57;;;;;;;19.10;100.00;99725.13;6237865;28;20426;-92
2022/08/16 04:55:29;;;;;;;7.70;6.75;;;;;;;19.14;100.00;99728.19;6228805;28;20479;-92
2022/08/16 04:58:39;;;;;;;8.43;6.32;;;;;;;19.15;100.00;99724.56;6230894;28;20188;-91
2022/08/16 05:01:45;;;;;;;9.05;6.15;;;;;;;19.16;100.00;99731.44;6254315;28;20467;-92
2022/08/16 05:05:00;;;;;;;6.78;6.03;;;;;;;19.13;100.00;99731.84;6267680;28;20195;-92
2022/08/16 05:08:02;;;;;;;7.43;5.80;;;;;;;19.13;100.00;99742.31;6260810;28;20175;-92
2022/08/16 05:11:30;;;;;;;9.98;6.93;;;;;;;19.08;100.00;99744.69;6232792;28;20049;-92
2022/08/16 05:14:35;;;;;;;6.78;5.93;;;;;;;19.06;100.00;99749.34;6250265;28;20053;-92
2022/08/16 05:17:53;;;;;;;8.27;6.03;;;;;;;19.04;100.00;99754.78;6258658;28;20061;-92
2022/08/16 05:21:05;;;;;;;9.00;7.22;;;;;;;19.04;100.00;99749.53;6250793;28;20053;-92
2022/08/16 05:24:15;;;;;;;8.27;6.65;;;;;;;19.02;100.00;99762.03;6229245;28;20056;-91
2022/08/16 05:27:27;;;;;;;9.30;6.88;;;;;;;19.03;100.00;99761.06;6231511;28;20514;-92
2022/08/16 05:30:29;;;;;;;10.38;7.20;;;;;;;19.04;100.00;99753.97;6246972;28;20059;-92
2022/08/16 05:33:42;;;;;;;8.65;6.80;;;;;;;19.05;100.00;99755.59;6251799;28;20068;-92
2022/08/16 05:36:56;;;;;;;7.25;6.45;;;;;;;19.08;100.00;99765.69;6271836;28;20700;-92
2022/08/16 05:40:08;;;;;;;10.05;6.55;;;;;;;19.10;100.00;99771.56;6268186;28;20060;-92
2022/08/16 05:43:15;;;;;;;8.43;7.10;;;;;;;19.21;100.00;99781.50;6230077;28;20163;-92
2022/08/16 05:46:18;;;;;;;10.93;7.55;;;;;;;19.28;100.00;99779.72;6232038;28;20045;-91
2022/08/16 05:49:38;;;;;;;8.90;7.00;;;;;;;19.41;100.00;99786.03;6245331;28;20503;-92
2022/08/16 05:52:44;;;;;;;9.27;7.60;;;;;;;19.48;100.00;99786.84;6261756;28;20215;-92
2022/08/16 05:55:47;;;;;;;10.70;7.65;;;;;;;19.51;100.00;99787.25;6237538;28;20076;-92
2022/08/16 05:58:49;;;;;;;8.30;7.13;;;;;;;19.50;100.00;99785.66;6235009;28;20090;-92
2022/08/16 06:01:53;;;;;;;10.35;8.00;;;;;;;19.48;100.00;99786.84;6206979;28;20095;-92
2022/08/16 06:05:01;;;;;;;10.18;7.82;;;;;;;19.46;100.00;99788.88;6241891;28;20333;-92
2022/08/16 06:08:04;;;;;;;10.50;7.88;;;;;;;19.48;100.00;99792.09;6235985;28;20084;-91
2022/08/16 06:11:12;;;;;;;9.32;8.20;;;;;;;19.50;100.00;99792.69;6273056;28;20061;-92
2022/08/16 06:14:20;;;;;;;11.75;7.10;;;;;;;19.51;100.00;99800.38;6228623;28;20049;-92
2022/08/16 06:17:22;;;;;;;7.57;6.78;;;;;;;19.55;100.00;99799.00;6271360;28;20580;-92
2022/08/16 06:20:42;;;;;;;11.43;7.45;;;;;;;19.60;100.00;99801.00;6240311;28;20059;-92
2022/08/16 06:23:59;;;;;;;11.48;8.27;;;;;;;19.66;100.00;99802.84;6274323;28;20045;-92
2022/08/16 06:27:22;;;;;;;12.90;8.70;;;;;;;19.76;100.00;99802.50;6218015;28;20102;-91
2022/08/16 06:30:24;;;;;;;10.50;8.18;;;;;;;19.86;100.00;99799.50;6227960;28;20216;-92
2022/08/16 06:33:31;;;;;;;9.68;7.28;;;;;;;19.92;100.00;99799.47;6222271;28;20530;-92
2022/08/16 06:36:43;;;;;;;10.18;7.40;;;;;;;19.98;100.00;99808.41;6256648;28;20083;-91
2022/08/16 06:39:53;;;;;;;;;;;;;;;20.00;100.00;99809.81;6241938;28;20041;-92
2022/08/16 06:43:01;;;;;;;10.07;7.30;;;;;;;20.07;100.00;99816.88;6266354;28;19967;-92
2022/08/16 06:46:24;;;;;;;9.52;6.95;;;;;;;20.11;100.00;99816.28;6251254;28;20049;-92
2022/08/16 06:49:36;;;;;;;8.30;6.82;;;;;;;20.15;100.00;99812.25;6245471;28;20045;-92
2022/08/16 06:52:39;;;;;;;7.15;6.20;;;;;;;20.25;100.00;99826.78;6238984;28;20046;-92
2022/08/16 06:56:05;;;;;;;7.15;6.22;;;;;;;20.34;100.00;99821.13;6244408;28;20030;-92
2022/08/16 06:59:42;;;;;;;6.22;5.60;;;;;;;20.46;100.00;99818.72;6244585;28;20404;-92
2022/08/16 07:03:05;;;;;;;7.15;5.10;;;;;;;20.55;100.00;99822.78;6259450;28;20045;-92
2022/08/16 07:06:30;;;;;;;7.93;5.45;;;;;;;20.63;100.00;99824.41;6271102;28;20456;-92
2022/08/16 07:09:34;;;;;;;8.40;5.47;;;;;;;20.63;100.00;99829.66;6262856;28;20171;-92
2022/08/16 07:12:37;;;;;;;6.35;5.63;;;;;;;20.63;100.00;99837.56;6249548;28;20500;-91
2022/08/16 07:16:00;;;;;;;6.50;5.75;;;;;;;20.64;100.00;99839.16;6247656;28;20042;-92
2022/08/16 07:19:03;;;;;;;7.20;5.63;;;;;;;20.67;100.00;99844.03;6233052;28;20057;-92
2022/08/16 07:22:10;;;;;;;5.90;5.30;;;;;;;20.73;100.00;99837.94;6227422;28;20153;-91
2022/08/16 07:25:33;;;;;;;7.25;5.40;;;;;;;20.82;100.00;99847.25;6215818;28;20069;-91
2022/08/16 07:28:41;;;;;;;5.10;4.60;;;;;;;20.91;100.00;99842.56;6218717;28;20052;-90
2022/08/16 07:31:46;;;;;;;7.97;5.03;;;;;;;21.03;100.00;99850.63;6222082;28;20514;-90
2022/08/16 07:34:51;;;;;;;5.70;5.13;;;;;;;21.13;100.00;99851.00;6261546;28;20125;-90
2022/08/16 07:37:53;;;;;;;9.20;5.05;;;;;;;21.19;100.00;99854.63;6261702;28;20045;-90
2022/08/16 07:41:12;;;;;;;5.05;4.57;;;;;;;21.22;100.00;99851.59;6230036;28;20527;-90
2022/08/16 07:44:20;;;;;;;6.15;4.80;;;;;;;21.26;100.00;99858.84;6262095;28;20549;-89
2022/08/16 07:47:24;;;;;;;5.47;4.82;;;;;;;21.34;99.57;99851.75;6226208;28;20038;-89
2022/08/16 07:50:33;;;;;;;8.13;5.45;;;;;;;21.48;96.82;99854.16;6262421;28;20057;-90
2022/08/16 07:53:55;;;;;;;7.65;4.95;;;;;;;21.55;95.01;99859.41;6232908;28;20392;-90
2022/08/16 07:57:15;;;;;;;5.80;5.07;;;;;;;21.65;95.29;99856.31;6257903;28;20052;-90
2022/08/16 08:00:22;;;;;;;7.07;5.43;;;;;;;21.75;94.08;99861.94;6253710;28;20397;-90
2022/08/16 08:03:27;;;;;;;7.88;5.75;;;;;;;21.79;93.14;99854.41;6235997;28;20063;-90
2022/08/16 08:06:43;;;;;;;5.95;5.20;;;;;;;21.78;93.59;99855.44;6209873;28;20550;-90
2022/08/16 08:09:51;;;;;;;9.23;5.70;;;;;;;21.87;92.87;99856.81;6230273;28;20052;-90
2022/08/16 08:12:53;;;;;;;7.22;5.40;;;;;;;21.87;91.43;99857.63;6230131;28;20079;-90
2022/08/16 08:16:00;;;;;;;7.00;5.55;;;;;;;21.95;91.89;99856.56;6236459;28;20041;-90
2022/08/16 08:19:03;;;;;;;5.57;5.00;;;;;;;22.04;90.37;99855.28;6252692;28;20156;-90
2022/08/16 08:22:08;;;;;;;6.07;5.10;;;;;;;22.14;90.26;99854.81;6224240;28;20053;-90
2022/08/16 08:25:30;;;;;;;6.68;5.30;;;;;;;22.23;89.61;99861.47;6245163;28;20037;-90
2022/08/16 08:28:53;;;;;;;6.30;5.70;;;;;;;22.30;89.68;99864.88;6226688;28;20048;-90
2022/08/16 08:32:03;;;;;;;5.67;4.97;;;;;;;22.36;88.34;99857.94;6236425;28;20044;-90
2022/08/16 08:35:27;;;;;;;5.53;4.75;;;;;;;22.48;87.03;99864.09;6231185;28;20691;-90
2022/08/16 08:38:30;;;;;;;5.72;5.00;;;;;;;22.67;85.78;99869.44;6231704;28;20495;-90
2022/08/16 08:41:51;;;;;;;8.43;5.15;;;;;;;22.80;84.92;99866.69;6230803;28;20056;-90
2022/08/16 08:44:57;;;;;;;6.20;4.93;;;;;;;22.89;85.89;99868.03;6216544;28;20050;-89
2022/08/16 08:47:59;;;;;;;5.68;5.18;;;;;;;23.04;82.10;99872.19;6241000;28;20045;-90
2022/08/16 08:51:07;;;;;;;6.97;4.63;;;;;;;23.09;81.08;99867.84;6280566;28;20056;-90
2022/08/16 08:54:31;;;;;;;6.35;4.40;;;;;;;23.17;80.56;99874.66;6219738;28;20091;-90
2022/08/16 08:57:34;;;;;;;4.70;4.15;;;;;;;23.27;79.39;99874.16;6267733;28;20052;-90
2022/08/16 09:00:56;;;;;;;6.80;4.40;;;;;;;23.42;76.11;99878.03;6240950;28;20672;-90
2022/08/16 09:04:05;;;;;;;5.18;4.63;;;;;;;23.53;76.75;99883.63;6277293;28;20046;-90
2022/08/16 09:07:10;;;;;;;5.40;4.30;;;;;;;23.63;77.65;99878.59;6276362;28;20042;-90
2022/08/16 09:10:13;;;;;;;4.63;4.20;;;;;;;23.75;75.88;99876.03;6275119;28;20503;-90
2022/08/16 09:13:23;;;;;;;4.65;4.05;;;;;;;23.83;76.43;99868.59;6230802;28;20156;-90
2022/08/16 09:16:25;;;;;;;4.85;4.15;;;;;;;23.89;75.66;99876.66;6248228;28;20045;-90
2022/08/16 09:19:47;;;;;;;5.13;4.35;;;;;;;23.96;75.25;99872.91;6231739;28;20042;-90
2022/08/16 09:22:58;;;;;;;5.97;4.18;;;;;;;24.23;70.76;99883.91;6264280;28;20472;-91
2022/08/16 09:26:09;;;;;;;5.82;3.97;;;;;;;24.31;69.37;99877.47;6216209;28;20046;-92
2022/08/16 09:29:31;;;;;;;5.53;4.38;;;;;;;24.47;68.61;99876.00;6263809;28;20115;-91
2022/08/16 09:32:49;;;;;;;6.30;4.03;;;;;;;24.58;69.89;99879.72;6253397;28;20135;-91
2022/08/16 09:35:52;;;;;;;5.05;4.40;;;;;;;24.66;70.23;99885.47;6222403;28;20034;-91
2022/08/16 09:38:56;;;;;;;5.03;4.53;;;;;;;24.74;68.92;99884.31;6238079;28;20041;-91
2022/08/16 09:42:01;;;;;;;5.55;4.72;;;;;;;24.87;71.35;99883.31;6241427;28;20052;-91
2022/08/16 09:45:07;;;;;;;5.28;4.78;;;;;;;24.89;69.51;99886.50;6239465;28;20113;-91
2022/08/16 09:48:19;;;;;;;6.13;4.35;;;;;;;25.01;69.56;99876.72;6237551;28;20046;-91
2022/08/16 09:51:41;;;;;;;5.07;4.55;;;;;;;25.06;68.26;99881.31;6237848;28;20501;-91
2022/08/16 09:54:43;;;;;;;5.68;4.57;;;;;;;25.12;68.33;99886.50;6229074;28;20042;-91
2022/08/16 09:57:46;;;;;;;5.38;4.65;;;;;;;25.18;66.99;99876.84;6251066;28;20116;-92
2022/08/16 10:00:54;;;;;;;5.57;4.20;;;;;;;25.39;63.83;99880.72;6242654;28;20040;-91
2022/08/16 10:03:57;;;;;;;4.60;3.85;;;;;;;25.56;60.82;99876.28;6231461;28;20337;-91
2022/08/16 10:07:04;;;;;;;6.90;4.50;;;;;;;25.55;61.66;99879.97;6240641;28;20408;-91
2022/08/16 10:10:23;;;;;;;5.05;4.55;;;;;;;25.57;63.55;99885.84;6230248;28;20144;-91
2022/08/16 10:13:38;;;;;;;5.80;3.83;;;;;;;25.83;60.82;99881.00;6234133;28;20053;-92
2022/08/16 10:16:44;;;;;;;3.88;3.50;;;;;;;26.09;60.19;99884.16;6269213;28;20053;-92
2022/08/16 10:19:51;;;;;;;4.05;3.53;;;;;;;26.36;59.25;99879.84;6219853;28;20051;-92
2022/08/16 10:22:54;;;;;;;7.05;5.50;;;;;;;26.72;56.95;99880.38;6224226;28;21074;-93
2022/08/16 10:26:06;;;;;;;6.18;4.38;;;;;;;27.01;58.13;99877.63;6233811;28;20034;-93
2022/08/16 10:29:28;;;;;;;5.32;4.32;;;;;;;27.42;56.35;99878.94;6231029;28;20403;-93
2022/08/16 10:32:50;;;;;;;5.25;4.03;;;;;;;27.86;53.35;99878.91;6234355;28;20084;-93
2022/08/16 10:35:53;;;;;;;4.28;3.88;;;;;;;28.14;52.63;99879.69;6243896;28;20045;-92
2022/08/16 10:39:01;;;;;;;6.25;4.18;;;;;;;28.18;52.44;99877.34;6246989;28;20107;-92
2022/08/16 10:42:05;;;;;;;11.73;4.50;;;;;;;28.20;54.92;99870.69;6239187;28;20474;-93
2022/08/16 10:45:09;;;;;;;6.38;4.60;;;;;;;27.93;52.23;99878.72;6234100;28;20449;-92
2022/08/16 10:48:11;;;;;;;7.05;4.20;;;;;;;27.68;54.36;99887.22;6241439;28;20041;-92
2022/08/16 10:51:31;;;;;;;10.55;4.85;;;;;;;27.44;54.31;99882.16;6266427;28;20032;-92
2022/08/16 10:54:44;;;;;;;5.07;3.75;;;;;;;27.15;55.22;99881.50;6238138;28;20125;-92
2022/08/16 10:58:10;;;;;;;6.63;4.22;;;;;;;27.06;54.89;99881.13;6239846;28;20079;-92
2022/08/16 11:01:14;;;;;;;5.07;4.32;;;;;;;27.08;55.56;99880.91;6231223;28;20049;-93
2022/08/16 11:04:37;;;;;;;5.60;4.38;;;;;;;27.20;54.81;99886.09;6232295;28;20541;-94
2022/08/16 11:08:00;;;;;;;4.85;3.92;;;;;;;27.27;55.38;99882.22;6224338;28;20422;-93
2022/08/16 11:11:07;;;;;;;4.45;4.03;;;;;;;27.36;55.08;99887.13;6224480;28;20875;-94
2022/08/16 11:14:19;;;;;;;4.40;3.97;;;;;;;27.67;54.36;99880.25;6236629;28;20176;-93
2022/08/16 11:17:21;;;;;;;5.40;4.10;;;;;;;27.95;50.28;99883.75;6218646;28;20045;-93
2022/08/16 11:20:23;;;;;;;4.53;4.13;;;;;;;27.87;51.15;99887.69;6245190;28;20131;-93
2022/08/16 11:23:42;;;;;;;6.78;4.47;;;;;;;28.16;50.20;99890.09;6220864;28;20099;-90
2022/08/16 11:27:00;;;;;;;4.93;4.47;;;;;;;28.22;49.14;99899.69;6235821;28;20045;-93
2022/08/16 11:30:24;;;;;;;4.95;4.50;;;;;;;28.33;47.78;99894.22;6216879;28;20053;-93
2022/08/16 11:33:40;;;;;;;4.82;4.07;;;;;;;28.39;49.51;99888.94;6211243;28;20046;-93
2022/08/16 11:36:59;;;;;;;4.22;3.83;;;;;;;28.64;48.10;99885.69;6223185;28;20468;-94
2022/08/16 11:40:05;;;;;;;7.38;3.78;;;;;;;28.88;46.93;99888.75;6222890;28;20038;-94
2022/08/16 11:43:10;;;;;;;4.20;3.75;;;;;;;28.97;45.66;99893.34;6231319;28;20419;-94
2022/08/16 11:46:16;;;;;;;4.63;3.60;;;;;;;28.96;46.24;99891.72;6231900;28;20495;-93
2022/08/16 11:49:38;;;;;;;6.30;4.60;;;;;;;29.00;46.84;99900.03;6231841;28;20084;-94
2022/08/16 11:52:40;;;;;;;4.43;4.03;;;;;;;29.18;46.53;99890.81;6238646;28;20417;-93
2022/08/16 11:55:48;;;;;;;4.72;4.22;;;;;;;29.49;47.15;99896.25;6233720;28;20415;-93
2022/08/16 11:58:56;;;;;;;5.53;4.30;;;;;;;29.59;45.21;99906.94;6232238;28;20029;-93
2022/08/16 12:01:58;;;;;;;6.47;4.07;;;;;;;29.28;46.24;99898.03;6242589;28;20056;-93
2022/08/16 12:05:21;;;;;;;5.78;4.35;;;;;;;28.93;47.99;99897.56;6226042;28;20034;-93
2022/08/16 12:08:24;;;;;;;5.32;4.47;;;;;;;28.62;49.58;99895.78;6233770;28;20052;-93
2022/08/16 12:11:28;;;;;;;5.40;4.65;;;;;;;28.32;50.58;99895.28;6231409;28;20041;-93
2022/08/16 12:14:33;;;;;;;4.70;4.30;;;;;;;28.19;49.50;99894.91;6222213;28;20053;-94
2022/08/16 12:17:39;;;;;;;4.40;4.00;;;;;;;28.10;49.56;99891.91;6235466;28;20110;-93
2022/08/16 12:20:43;;;;;;;4.35;3.97;;;;;;;28.48;49.65;99892.78;6220391;28;20261;-93
2022/08/16 12:23:46;;;;;;;4.70;4.15;;;;;;;28.49;48.75;99891.69;6222753;28;20046;-94
2022/08/16 12:26:48;;;;;;;4.65;4.25;;;;;;;28.29;50.44;99889.66;6218996;28;20396;-93
2022/08/16 12:29:52;;;;;;;5.10;3.95;;;;;;;28.73;49.84;99892.13;6242274;28;20052;-92
2022/08/16 12:32:56;;;;;;;4.20;3.90;;;;;;;28.78;46.42;99895.63;6240528;28;20045;-93
2022/08/16 12:35:59;;;;;;;6.25;4.53;;;;;;;28.50;48.75;99896.78;6225322;28;20030;-93
2022/08/16 12:39:03;;;;;;;4.78;4.05;;;;;;;28.25;47.91;99901.88;6218851;28;20371;-92
2022/08/16 12:42:13;;;;;;;6.47;4.38;;;;;;;27.99;50.88;99898.97;6255268;28;20437;-93
2022/08/16 12:45:20;;;;;;;8.93;4.90;;;;;;;27.82;53.23;99900.94;6247525;28;20049;-93
2022/08/16 12:51:48;;;;;;;5.85;4.28;;;;;;;27.56;54.05;99900.63;6249857;28;20552;-93
2022/08/16 12:55:02;;;;;;;5.70;4.30;;;;;;;27.62;54.68;99902.28;6233692;28;20507;-92
2022/08/16 12:58:05;;;;;;;5.00;4.15;;;;;;;27.78;51.45;99892.63;6253749;28;20050;-92
2022/08/16 13:01:30;;;;;;;4.60;4.03;;;;;;;27.95;52.67;99897.88;6240736;28;20380;-92
2022/08/16 13:04:34;;;;;;;4.90;4.47;;;;;;;27.97;52.41;99898.41;6223365;28;20045;-93
2022/08/16 13:07:36;;;;;;;4.50;4.10;;;;;;;27.83;51.25;99895.38;6230275;28;20282;-92
2022/08/16 13:10:53;;;;;;;4.53;4.07;;;;;;;27.69;52.51;99888.81;6222776;28;20033;-93
2022/08/16 13:13:55;;;;;;;9.02;4.63;;;;;;;27.60;52.78;99895.59;6224663;28;20148;-92
2022/08/16 13:17:04;;;;;;;5.00;4.50;;;;;;;27.52;51.72;99891.53;6221271;28;20076;-92
2022/08/16 13:20:15;;;;;;;5.57;4.30;;;;;;;27.44;53.27;99895.44;6227272;28;20049;-92
2022/08/16 13:23:18;;;;;;;5.27;4.17;;;;;;;27.36;54.21;99897.75;6224015;28;20048;-92
2022/08/16 13:26:20;;;;;;;4.57;4.07;;;;;;;27.26;57.12;99893.09;6219832;28;20041;-92
2022/08/16 13:29:22;;;;;;;4.50;3.97;;;;;;;27.25;57.51;99894.97;6218697;28;20064;-92
2022/08/16 13:32:24;;;;;;;4.75;4.13;;;;;;;27.35;55.42;99896.13;6217325;28;20617;-92
2022/08/16 13:35:44;;;;;;;5.13;4.18;;;;;;;28.13;50.30;99896.72;6240575;28;20137;-92
2022/08/16 13:38:59;;;;;;;5.75;4.45;;;;;;;28.24;49.91;99894.94;6226814;28;20052;-92
2022/08/16 13:42:01;;;;;;;4.53;4.13;;;;;;;28.44;50.49;99897.75;6236423;28;20052;-92
2022/08/16 13:45:06;;;;;;;4.53;4.13;;;;;;;28.59;52.34;99898.97;6231879;28;20500;-93
2022/08/16 13:48:09;;;;;;;6.57;4.40;;;;;;;29.37;52.76;99894.63;6233454;28;20044;-93
2022/08/16 13:51:23;;;;;;;5.97;4.05;;;;;;;30.35;49.19;99892.16;6237202;28;20038;-93
2022/08/16 13:54:25;;;;;;;4.95;4.20;;;;;;;30.99;45.86;99885.41;6245802;28;20040;-93
2022/08/16 13:57:32;;;;;;;4.90;4.03;;;;;;;31.21;44.30;99885.03;6242532;28;20123;-93
2022/08/16 14:00:54;;;;;;;4.43;4.03;;;;;;;31.11;45.70;99883.22;6246694;28;20044;-93
2022/08/16 14:04:00;;;;;;;7.80;3.95;;;;;;;31.02;46.49;99869.59;6228653;28;20046;-93
2022/08/16 14:07:05;;;;;;;4.63;4.20;;;;;;;31.43;43.61;99880.16;6230772;28;20052;-94
2022/08/16 14:10:11;;;;;;;4.60;4.13;;;;;;;31.91;42.84;99884.94;6242797;28;20423;-94
2022/08/16 14:13:15;;;;;;;6.65;4.55;;;;;;;32.21;42.90;99875.09;6229376;28;20044;-96
2022/08/16 14:16:22;;;;;;;4.68;4.28;;;;;;;32.61;40.58;99873.94;6226826;28;20607;-94
2022/08/16 14:19:35;;;;;;;4.88;4.38;;;;;;;32.91;41.89;99878.16;6256302;28;20049;-94
2022/08/16 14:22:39;;;;;;;4.43;3.70;;;;;;;32.76;40.50;99875.66;6221434;28;20557;-93
2022/08/16 14:25:47;;;;;;;6.38;4.85;;;;;;;32.79;39.89;99877.75;6240885;28;20046;-93
2022/08/16 14:28:55;;;;;;;4.40;4.00;;;;;;;32.59;42.61;99881.47;6217092;28;20507;-93
2022/08/16 14:32:06;;;;;;;5.38;3.70;;;;;;;32.83;39.89;99884.97;6218532;28;20352;-94
2022/08/16 14:35:20;;;;;;;6.82;4.60;;;;;;;33.06;39.36;99879.09;6250013;28;20053;-94
2022/08/16 14:38:29;;;;;;;4.93;4.53;;;;;;;33.34;41.11;99872.03;6220323;28;20526;-95
2022/08/16 14:41:40;;;;;;;4.30;3.97;;;;;;;33.58;36.86;99878.16;6222896;28;20056;-93
2022/08/16 14:44:43;;;;;;;5.80;4.30;;;;;;;33.56;38.41;99874.19;6220940;28;20042;-95
2022/08/16 14:47:45;;;;;;;5.50;3.80;;;;;;;33.45;36.92;99865.44;6222484;28;20041;-94
2022/08/16 14:50:50;;;;;;;4.70;3.90;;;;;;;33.22;36.34;99862.53;6226601;28;20038;-93